sensor_id;sensor_type;location;lat;lon;timestamp;pressure;altitude;pressure_sealevel;temperature;humidity
49311;BME280;35177;45.900;5.946;2022-10-16T00:00:26;97570.00;;;11.21;100.00
49311;BME280;35177;45.900;5.946;2022-10-16T00:02:52;97574.28;;;10.96;100.00
49311;BME280;35177;45.900;5.946;2022-10-16T00:05:17;97578.13;;;11.09;100.00
49311;BME280;35177;45.900;5.946;2022-10-16T00:07:43;97575.25;;;10.91;100.00
49311;BME280;35177;45.900;5.946;2022-10-16T00:10:08;97577.75;;;11.02;100.00
49311;BME280;35177;45.900;5.946;2022-10-16T00:12:34;97576.53;;;11.25;100.00
49311;BME280;35177;45.900;5.946;2022-10-16T00:14:59;97579.03;;;11.27;100.00
49311;BME280;35177;45.900;5.946;2022-10-16T00:17:25;97580.94;;;11.18;100.00
49311;BME280;35177;45.900;5.946;2022-10-16T00:19:50;97577.47;;;11.12;100.00
49311;BME280;35177;45.900;5.946;2022-10-16T00:22:16;97583.41;;;10.88;100.00
49311;BME280;35177;45.900;5.946;2022-10-16T00:24:41;97587.94;;;10.84;100.00
49311;BME280;35177;45.900;5.946;2022-10-16T00:27:07;97590.09;;;10.64;100.00
49311;BME280;35177;45.900;5.946;2022-10-16T00:29:32;97594.03;;;10.63;100.00
49311;BME280;35177;45.900;5.946;2022-10-16T00:31:58;97592.13;;;10.72;100.00
49311;BME280;35177;45.900;5.946;2022-10-16T00:34:23;97593.00;;;10.59;100.00
49311;BME280;35177;45.900;5.946;2022-10-16T00:36:48;97598.50;;;10.50;100.00
49311;BME280;35177;45.900;5.946;2022-10-16T00:39:14;97603.88;;;10.33;100.00
49311;BME280;35177;45.900;5.946;2022-10-16T00:41:39;97599.44;;;10.45;100.00
49311;BME280;35177;45.900;5.946;2022-10-16T00:44:45;97602.72;;;10.48;100.00
49311;BME280;35177;45.900;5.946;2022-10-16T00:47:28;97597.50;;;10.46;100.00
49311;BME280;35177;45.900;5.946;2022-10-16T00:50:08;97605.38;;;10.53;100.00
49311;BME280;35177;45.900;5.946;2022-10-16T00:52:35;97602.34;;;10.40;100.00
49311;BME280;35177;45.900;5.946;2022-10-16T00:55:03;97606.25;;;10.39;100.00
49311;BME280;35177;45.900;5.946;2022-10-16T00:57:29;97600.75;;;10.48;100.00
49311;BME280;35177;45.900;5.946;2022-10-16T00:59:56;97607.56;;;10.42;100.00
49311;BME280;35177;45.900;5.946;2022-10-16T01:02:22;97606.31;;;10.48;100.00
49311;BME280;35177;45.900;5.946;2022-10-16T01:04:50;97617.66;;;10.38;100.00
49311;BME280;35177;45.900;5.946;2022-10-16T01:10:39;97616.22;;;10.26;100.00
49311;BME280;35177;45.900;5.946;2022-10-16T01:13:07;97621.91;;;10.21;100.00
49311;BME280;35177;45.900;5.946;2022-10-16T01:20:54;97614.50;;;10.17;100.00
49311;BME280;35177;45.900;5.946;2022-10-16T01:28:51;97615.19;;;9.72;100.00
49311;BME280;35177;45.900;5.946;2022-10-16T01:31:22;97608.41;;;9.78;100.00
49311;BME280;35177;45.900;5.946;2022-10-16T01:34:03;97611.53;;;9.62;100.00
49311;BME280;35177;45.900;5.946;2022-10-16T01:36:42;97614.78;;;9.78;100.00
49311;BME280;35177;45.900;5.946;2022-10-16T01:39:12;97618.56;;;9.83;100.00
49311;BME280;35177;45.900;5.946;2022-10-16T01:41:46;97620.22;;;9.56;100.00
49311;BME280;35177;45.900;5.946;2022-10-16T01:44:24;97623.41;;;9.77;100.00
49311;BME280;35177;45.900;5.946;2022-10-16T01:46:52;97619.69;;;9.81;100.00
49311;BME280;35177;45.900;5.946;2022-10-16T01:49:21;97617.22;;;9.94;100.00
49311;BME280;35177;45.900;5.946;2022-10-16T01:51:50;97618.88;;;9.95;100.00
49311;BME280;35177;45.900;5.946;2022-10-16T01:54:18;97614.38;;;9.85;100.00
49311;BME280;35177;45.900;5.946;2022-10-16T01:56:46;97616.63;;;9.83;100.00
49311;BME280;35177;45.900;5.946;2022-10-16T01:59:16;97621.06;;;9.70;100.00
49311;BME280;35177;45.900;5.946;2022-10-16T02:01:47;97619.72;;;9.68;100.00
49311;BME280;35177;45.900;5.946;2022-10-16T02:04:23;97625.88;;;9.64;100.00
49311;BME280;35177;45.900;5.946;2022-10-16T02:06:49;97626.50;;;9.61;100.00
49311;BME280;35177;45.900;5.946;2022-10-16T02:09:15;97621.47;;;9.49;100.00
49311;BME280;35177;45.900;5.946;2022-10-16T02:11:43;97624.56;;;9.48;100.00
49311;BME280;35177;45.900;5.946;2022-10-16T02:14:08;97621.56;;;9.58;100.00
49311;BME280;35177;45.900;5.946;2022-10-16T02:16:37;97616.84;;;9.45;100.00
49311;BME280;35177;45.900;5.946;2022-10-16T02:19:04;97618.50;;;9.46;100.00
49311;BME280;35177;45.900;5.946;2022-10-16T02:22:04;97621.06;;;9.56;100.00
49311;BME280;35177;45.900;5.946;2022-10-16T02:24:43;97627.41;;;9.71;100.00
49311;BME280;35177;45.900;5.946;2022-10-16T02:27:25;97623.41;;;9.63;100.00
49311;BME280;35177;45.900;5.946;2022-10-16T02:29:56;97620.44;;;9.45;100.00
49311;BME280;35177;45.900;5.946;2022-10-16T02:32:28;97619.50;;;9.36;100.00
49311;BME280;35177;45.900;5.946;2022-10-16T02:34:56;97618.28;;;9.28;100.00
49311;BME280;35177;45.900;5.946;2022-10-16T02:37:23;97613.13;;;9.22;100.00
49311;BME280;35177;45.900;5.946;2022-10-16T02:39:49;97615.78;;;9.13;100.00
49311;BME280;35177;45.900;5.946;2022-10-16T02:42:17;97614.78;;;9.09;100.00
49311;BME280;35177;45.900;5.946;2022-10-16T02:44:43;97621.53;;;9.16;100.00
49311;BME280;35177;45.900;5.946;2022-10-16T02:47:08;97616.22;;;9.06;100.00
49311;BME280;35177;45.900;5.946;2022-10-16T02:49:34;97623.41;;;9.21;100.00
49311;BME280;35177;45.900;5.946;2022-10-16T02:52:00;97629.47;;;9.23;100.00
49311;BME280;35177;45.900;5.946;2022-10-16T02:54:25;97620.22;;;9.14;100.00
49311;BME280;35177;45.900;5.946;2022-10-16T02:56:51;97626.22;;;8.88;100.00
49311;BME280;35177;45.900;5.946;2022-10-16T02:59:17;97622.09;;;8.86;100.00
49311;BME280;35177;45.900;5.946;2022-10-16T03:01:42;97625.94;;;9.04;100.00
49311;BME280;35177;45.900;5.946;2022-10-16T03:04:08;97631.28;;;9.00;100.00
49311;BME280;35177;45.900;5.946;2022-10-16T03:06:34;97641.91;;;8.93;100.00
49311;BME280;35177;45.900;5.946;2022-10-16T03:08:59;97640.53;;;8.76;100.00
49311;BME280;35177;45.900;5.946;2022-10-16T03:11:25;97637.69;;;8.81;100.00
49311;BME280;35177;45.900;5.946;2022-10-16T03:13:51;97640.56;;;8.90;100.00
49311;BME280;35177;45.900;5.946;2022-10-16T03:16:17;97641.16;;;8.87;100.00
49311;BME280;35177;45.900;5.946;2022-10-16T03:18:42;97635.97;;;8.99;100.00
49311;BME280;35177;45.900;5.946;2022-10-16T03:21:08;97639.75;;;8.90;100.00
49311;BME280;35177;45.900;5.946;2022-10-16T03:23:33;97640.31;;;8.73;100.00
49311;BME280;35177;45.900;5.946;2022-10-16T03:25:59;97645.50;;;8.60;100.00
49311;BME280;35177;45.900;5.946;2022-10-16T03:28:24;97642.66;;;8.65;100.00
49311;BME280;35177;45.900;5.946;2022-10-16T03:30:50;97642.78;;;8.74;100.00
49311;BME280;35177;45.900;5.946;2022-10-16T03:33:16;97646.66;;;8.73;100.00
49311;BME280;35177;45.900;5.946;2022-10-16T03:35:41;97647.63;;;8.82;100.00
49311;BME280;35177;45.900;5.946;2022-10-16T03:38:06;97662.28;;;8.83;100.00
49311;BME280;35177;45.900;5.946;2022-10-16T03:40:32;97659.16;;;8.71;100.00
49311;BME280;35177;45.900;5.946;2022-10-16T03:42:58;97665.06;;;8.83;100.00
49311;BME280;35177;45.900;5.946;2022-10-16T03:45:24;97660.47;;;8.92;100.00
49311;BME280;35177;45.900;5.946;2022-10-16T03:47:50;97663.44;;;8.96;100.00
49311;BME280;35177;45.900;5.946;2022-10-16T03:50:15;97670.97;;;9.09;100.00
49311;BME280;35177;45.900;5.946;2022-10-16T03:52:41;97663.13;;;9.30;100.00
49311;BME280;35177;45.900;5.946;2022-10-16T03:55:07;97661.91;;;9.37;100.00
49311;BME280;35177;45.900;5.946;2022-10-16T03:57:33;97668.44;;;9.27;100.00
49311;BME280;35177;45.900;5.946;2022-10-16T03:59:58;97663.81;;;9.08;100.00
49311;BME280;35177;45.900;5.946;2022-10-16T04:02:24;97660.88;;;8.99;100.00
49311;BME280;35177;45.900;5.946;2022-10-16T04:04:49;97665.81;;;8.70;100.00
49311;BME280;35177;45.900;5.946;2022-10-16T04:07:15;97659.97;;;8.71;100.00
49311;BME280;35177;45.900;5.946;2022-10-16T04:09:40;97663.41;;;8.82;100.00
49311;BME280;35177;45.900;5.946;2022-10-16T04:12:07;97668.91;;;8.68;100.00
49311;BME280;35177;45.900;5.946;2022-10-16T04:14:32;97663.19;;;8.78;100.00
49311;BME280;35177;45.900;5.946;2022-10-16T04:16:58;97659.47;;;8.69;100.00
49311;BME280;35177;45.900;5.946;2022-10-16T04:19:23;97674.88;;;8.56;100.00
49311;BME280;35177;45.900;5.946;2022-10-16T04:21:49;97672.78;;;8.48;100.00
49311;BME280;35177;45.900;5.946;2022-10-16T04:24:15;97673.09;;;8.46;100.00
49311;BME280;35177;45.900;5.946;2022-10-16T04:26:40;97672.56;;;8.63;100.00
49311;BME280;35177;45.900;5.946;2022-10-16T04:29:06;97665.59;;;8.66;100.00
49311;BME280;35177;45.900;5.946;2022-10-16T04:31:32;97669.94;;;8.72;100.00
49311;BME280;35177;45.900;5.946;2022-10-16T04:33:58;97673.88;;;8.85;100.00
49311;BME280;35177;45.900;5.946;2022-10-16T04:36:23;97666.28;;;8.91;100.00
49311;BME280;35177;45.900;5.946;2022-10-16T04:38:49;97670.34;;;8.98;100.00
49311;BME280;35177;45.900;5.946;2022-10-16T04:41:14;97677.03;;;9.25;100.00
49311;BME280;35177;45.900;5.946;2022-10-16T04:43:40;97672.66;;;9.24;100.00
49311;BME280;35177;45.900;5.946;2022-10-16T04:46:05;97677.56;;;9.13;100.00
49311;BME280;35177;45.900;5.946;2022-10-16T04:48:32;97677.84;;;9.12;100.00
49311;BME280;35177;45.900;5.946;2022-10-16T04:50:57;97684.09;;;9.04;100.00
49311;BME280;35177;45.900;5.946;2022-10-16T04:53:23;97688.44;;;8.91;100.00
49311;BME280;35177;45.900;5.946;2022-10-16T04:55:49;97695.59;;;8.78;100.00
49311;BME280;35177;45.900;5.946;2022-10-16T04:58:15;97687.19;;;8.83;100.00
49311;BME280;35177;45.900;5.946;2022-10-16T05:00:40;97693.50;;;8.70;100.00
49311;BME280;35177;45.900;5.946;2022-10-16T05:03:05;97683.53;;;8.68;100.00
49311;BME280;35177;45.900;5.946;2022-10-16T05:05:34;97691.84;;;8.68;100.00
49311;BME280;35177;45.900;5.946;2022-10-16T05:08:00;97684.50;;;8.78;100.00
49311;BME280;35177;45.900;5.946;2022-10-16T05:10:25;97686.38;;;8.82;100.00
49311;BME280;35177;45.900;5.946;2022-10-16T05:12:51;97695.34;;;8.74;100.00
49311;BME280;35177;45.900;5.946;2022-10-16T05:15:17;97691.03;;;8.68;100.00
49311;BME280;35177;45.900;5.946;2022-10-16T05:17:43;97684.19;;;8.79;100.00
49311;BME280;35177;45.900;5.946;2022-10-16T05:20:09;97692.38;;;8.51;100.00
49311;BME280;35177;45.900;5.946;2022-10-16T05:22:34;97690.59;;;8.61;100.00
49311;BME280;35177;45.900;5.946;2022-10-16T05:25:00;97687.19;;;8.83;100.00
49311;BME280;35177;45.900;5.946;2022-10-16T05:27:26;97685.84;;;8.80;100.00
49311;BME280;35177;45.900;5.946;2022-10-16T05:29:51;97679.19;;;8.81;100.00
49311;BME280;35177;45.900;5.946;2022-10-16T05:32:18;97679.34;;;8.71;100.00
49311;BME280;35177;45.900;5.946;2022-10-16T05:34:44;97689.00;;;8.74;100.00
49311;BME280;35177;45.900;5.946;2022-10-16T05:37:11;97689.91;;;8.69;100.00
49311;BME280;35177;45.900;5.946;2022-10-16T05:39:37;97693.56;;;8.64;100.00
49311;BME280;35177;45.900;5.946;2022-10-16T05:42:04;97698.81;;;8.66;100.00
49311;BME280;35177;45.900;5.946;2022-10-16T05:44:30;97699.91;;;8.84;100.00
49311;BME280;35177;45.900;5.946;2022-10-16T05:46:55;97695.63;;;8.92;100.00
49311;BME280;35177;45.900;5.946;2022-10-16T05:49:21;97692.88;;;9.06;100.00
49311;BME280;35177;45.900;5.946;2022-10-16T05:51:46;97695.97;;;9.04;100.00
49311;BME280;35177;45.900;5.946;2022-10-16T05:54:12;97701.38;;;8.95;100.00
49311;BME280;35177;45.900;5.946;2022-10-16T05:56:37;97699.34;;;9.01;100.00
49311;BME280;35177;45.900;5.946;2022-10-16T05:59:04;97702.00;;;8.92;100.00
49311;BME280;35177;45.900;5.946;2022-10-16T06:01:29;97702.59;;;8.89;100.00
49311;BME280;35177;45.900;5.946;2022-10-16T06:03:56;97705.34;;;8.89;100.00
49311;BME280;35177;45.900;5.946;2022-10-16T06:06:24;97701.56;;;8.85;100.00
49311;BME280;35177;45.900;5.946;2022-10-16T06:08:52;97698.78;;;8.85;100.00
49311;BME280;35177;45.900;5.946;2022-10-16T06:11:27;97710.34;;;8.87;100.00
49311;BME280;35177;45.900;5.946;2022-10-16T06:13:56;97714.69;;;8.93;100.00
49311;BME280;35177;45.900;5.946;2022-10-16T06:16:23;97722.56;;;8.86;100.00
49311;BME280;35177;45.900;5.946;2022-10-16T06:18:51;97719.94;;;8.76;100.00
49311;BME280;35177;45.900;5.946;2022-10-16T06:21:18;97726.25;;;8.81;100.00
49311;BME280;35177;45.900;5.946;2022-10-16T06:23:44;97721.38;;;8.92;100.00
49311;BME280;35177;45.900;5.946;2022-10-16T06:26:15;97727.38;;;9.13;100.00
49311;BME280;35177;45.900;5.946;2022-10-16T06:28:41;97730.53;;;9.07;100.00
49311;BME280;35177;45.900;5.946;2022-10-16T06:31:08;97726.19;;;9.00;100.00
49311;BME280;35177;45.900;5.946;2022-10-16T06:33:35;97718.09;;;9.23;100.00
49311;BME280;35177;45.900;5.946;2022-10-16T06:36:27;97727.63;;;9.31;100.00
49311;BME280;35177;45.900;5.946;2022-10-16T06:38:53;97721.41;;;9.39;100.00
49311;BME280;35177;45.900;5.946;2022-10-16T06:41:21;97724.38;;;9.43;100.00
49311;BME280;35177;45.900;5.946;2022-10-16T06:43:47;97728.38;;;9.51;100.00
49311;BME280;35177;45.900;5.946;2022-10-16T06:46:15;97728.28;;;9.56;100.00
49311;BME280;35177;45.900;5.946;2022-10-16T06:48:41;97739.19;;;9.66;100.00
49311;BME280;35177;45.900;5.946;2022-10-16T06:51:25;97747.84;;;9.78;100.00
49311;BME280;35177;45.900;5.946;2022-10-16T06:53:53;97748.84;;;9.96;100.00
49311;BME280;35177;45.900;5.946;2022-10-16T06:56:20;97746.31;;;10.14;100.00
49311;BME280;35177;45.900;5.946;2022-10-16T06:58:47;97743.19;;;10.29;100.00
49311;BME280;35177;45.900;5.946;2022-10-16T07:01:14;97747.81;;;10.48;100.00
49311;BME280;35177;45.900;5.946;2022-10-16T07:03:42;97743.78;;;10.54;100.00
49311;BME280;35177;45.900;5.946;2022-10-16T07:06:09;97749.25;;;10.45;100.00
49311;BME280;35177;45.900;5.946;2022-10-16T07:08:37;97748.53;;;10.54;100.00
49311;BME280;35177;45.900;5.946;2022-10-16T07:11:12;97744.13;;;10.53;100.00
49311;BME280;35177;45.900;5.946;2022-10-16T07:13:40;97752.41;;;10.67;100.00
49311;BME280;35177;45.900;5.946;2022-10-16T07:16:08;97751.06;;;10.78;100.00
49311;BME280;35177;45.900;5.946;2022-10-16T07:18:34;97767.19;;;10.76;100.00
49311;BME280;35177;45.900;5.946;2022-10-16T07:21:08;97761.72;;;10.85;100.00
49311;BME280;35177;45.900;5.946;2022-10-16T07:23:34;97756.75;;;10.96;100.00
49311;BME280;35177;45.900;5.946;2022-10-16T07:25:59;97756.81;;;11.04;100.00
49311;BME280;35177;45.900;5.946;2022-10-16T07:28:25;97762.63;;;11.17;100.00
49311;BME280;35177;45.900;5.946;2022-10-16T07:30:50;97769.25;;;11.30;100.00
49311;BME280;35177;45.900;5.946;2022-10-16T07:33:16;97783.78;;;11.27;100.00
49311;BME280;35177;45.900;5.946;2022-10-16T07:35:52;97785.41;;;11.28;100.00
49311;BME280;35177;45.900;5.946;2022-10-16T07:38:18;97793.81;;;11.36;100.00
49311;BME280;35177;45.900;5.946;2022-10-16T07:40:44;97805.13;;;11.40;100.00
49311;BME280;35177;45.900;5.946;2022-10-16T07:43:10;97814.47;;;11.44;100.00
49311;BME280;35177;45.900;5.946;2022-10-16T07:45:36;97806.69;;;11.55;100.00
49311;BME280;35177;45.900;5.946;2022-10-16T07:48:01;97802.22;;;11.68;100.00
49311;BME280;35177;45.900;5.946;2022-10-16T07:50:27;97797.41;;;11.82;100.00
49311;BME280;35177;45.900;5.946;2022-10-16T07:52:52;97806.91;;;11.90;100.00
49311;BME280;35177;45.900;5.946;2022-10-16T07:55:18;97822.03;;;11.98;100.00
49311;BME280;35177;45.900;5.946;2022-10-16T07:57:43;97822.06;;;12.07;100.00
49311;BME280;35177;45.900;5.946;2022-10-16T08:00:09;97818.50;;;12.15;100.00
49311;BME280;35177;45.900;5.946;2022-10-16T08:02:39;97814.56;;;12.07;100.00
49311;BME280;35177;45.900;5.946;2022-10-16T08:05:05;97812.97;;;12.24;100.00
49311;BME280;35177;45.900;5.946;2022-10-16T08:07:31;97812.56;;;12.39;100.00
49311;BME280;35177;45.900;5.946;2022-10-16T08:09:56;97807.72;;;12.71;100.00
49311;BME280;35177;45.900;5.946;2022-10-16T08:12:25;97812.69;;;13.27;100.00
49311;BME280;35177;45.900;5.946;2022-10-16T08:14:51;97812.72;;;13.44;100.00
49311;BME280;35177;45.900;5.946;2022-10-16T08:17:19;97811.41;;;13.50;100.00
49311;BME280;35177;45.900;5.946;2022-10-16T08:19:46;97804.66;;;13.60;100.00
49311;BME280;35177;45.900;5.946;2022-10-16T08:22:11;97808.75;;;13.80;100.00
49311;BME280;35177;45.900;5.946;2022-10-16T08:24:37;97813.16;;;13.90;100.00
49311;BME280;35177;45.900;5.946;2022-10-16T08:27:02;97810.25;;;13.69;100.00
49311;BME280;35177;45.900;5.946;2022-10-16T08:29:28;97818.75;;;13.81;100.00
49311;BME280;35177;45.900;5.946;2022-10-16T08:31:54;97820.31;;;14.09;100.00
49311;BME280;35177;45.900;5.946;2022-10-16T08:34:19;97826.22;;;14.16;100.00
49311;BME280;35177;45.900;5.946;2022-10-16T08:36:46;97825.53;;;14.19;100.00
49311;BME280;35177;45.900;5.946;2022-10-16T08:39:12;97829.72;;;14.43;100.00
49311;BME280;35177;45.900;5.946;2022-10-16T08:47:57;97824.69;;;14.57;100.00
49311;BME280;35177;45.900;5.946;2022-10-16T08:50:27;97823.38;;;14.72;100.00
49311;BME280;35177;45.900;5.946;2022-10-16T08:52:54;97820.09;;;14.61;100.00
49311;BME280;35177;45.900;5.946;2022-10-16T08:55:43;97823.34;;;14.63;100.00
49311;BME280;35177;45.900;5.946;2022-10-16T08:58:15;97816.56;;;14.82;100.00
49311;BME280;35177;45.900;5.946;2022-10-16T09:00:42;97826.47;;;15.01;100.00
49311;BME280;35177;45.900;5.946;2022-10-16T09:13:17;97819.53;;;16.29;100.00
49311;BME280;35177;45.900;5.946;2022-10-16T09:21:12;97822.00;;;17.86;100.00
49311;BME280;35177;45.900;5.946;2022-10-16T09:23:40;97820.25;;;17.81;100.00
49311;BME280;35177;45.900;5.946;2022-10-16T09:26:11;97830.34;;;18.43;100.00
49311;BME280;35177;45.900;5.946;2022-10-16T09:28:37;97824.16;;;18.37;100.00
49311;BME280;35177;45.900;5.946;2022-10-16T09:31:03;97825.84;;;19.06;100.00
49311;BME280;35177;45.900;5.946;2022-10-16T09:33:33;97828.41;;;19.31;100.00
49311;BME280;35177;45.900;5.946;2022-10-16T09:36:03;97822.81;;;20.09;100.00
49311;BME280;35177;45.900;5.946;2022-10-16T09:38:34;97822.44;;;20.34;100.00
49311;BME280;35177;45.900;5.946;2022-10-16T09:41:08;97824.63;;;19.98;100.00
49311;BME280;35177;45.900;5.946;2022-10-16T09:43:59;97823.50;;;19.83;100.00
49311;BME280;35177;45.900;5.946;2022-10-16T09:46:29;97828.22;;;20.41;100.00
49311;BME280;35177;45.900;5.946;2022-10-16T09:48:57;97824.09;;;20.81;100.00
49311;BME280;35177;45.900;5.946;2022-10-16T09:51:27;97821.97;;;21.28;100.00
49311;BME280;35177;45.900;5.946;2022-10-16T09:56:34;97828.56;;;21.40;100.00
49311;BME280;35177;45.900;5.946;2022-10-16T09:59:08;97823.69;;;21.63;100.00
49311;BME280;35177;45.900;5.946;2022-10-16T10:01:51;97827.13;;;21.80;100.00
49311;BME280;35177;45.900;5.946;2022-10-16T10:04:21;97833.75;;;21.61;100.00
49311;BME280;35177;45.900;5.946;2022-10-16T10:06:55;97836.13;;;21.89;100.00
49311;BME280;35177;45.900;5.946;2022-10-16T10:09:24;97842.63;;;21.93;100.00
49311;BME280;35177;45.900;5.946;2022-10-16T10:11:52;97836.63;;;21.98;100.00
49311;BME280;35177;45.900;5.946;2022-10-16T10:14:36;97835.28;;;22.23;100.00
49311;BME280;35177;45.900;5.946;2022-10-16T10:19:54;97831.63;;;21.85;100.00
49311;BME280;35177;45.900;5.946;2022-10-16T10:27:53;97822.34;;;20.27;100.00
49311;BME280;35177;45.900;5.946;2022-10-16T10:33:20;97820.84;;;20.79;100.00
49311;BME280;35177;45.900;5.946;2022-10-16T10:43:55;97802.44;;;21.16;100.00
49311;BME280;35177;45.900;5.946;2022-10-16T10:55:18;97787.44;;;22.07;100.00
49311;BME280;35177;45.900;5.946;2022-10-16T10:57:56;97788.44;;;22.25;100.00
49311;BME280;35177;45.900;5.946;2022-10-16T11:00:35;97779.72;;;22.41;100.00
49311;BME280;35177;45.900;5.946;2022-10-16T11:03:20;97783.50;;;22.56;100.00
49311;BME280;35177;45.900;5.946;2022-10-16T11:06:02;97777.81;;;22.49;100.00
49311;BME280;35177;45.900;5.946;2022-10-16T11:08:41;97787.00;;;22.42;98.42
49311;BME280;35177;45.900;5.946;2022-10-16T11:11:10;97771.81;;;22.17;100.00
49311;BME280;35177;45.900;5.946;2022-10-16T11:13:44;97769.44;;;21.85;100.00
49311;BME280;35177;45.900;5.946;2022-10-16T11:16:39;97768.03;;;21.67;100.00
49311;BME280;35177;45.900;5.946;2022-10-16T11:19:12;97758.66;;;21.94;100.00
49311;BME280;35177;45.900;5.946;2022-10-16T11:22:09;97757.47;;;21.98;100.00
49311;BME280;35177;45.900;5.946;2022-10-16T11:27:39;97750.16;;;22.84;99.76
49311;BME280;35177;45.900;5.946;2022-10-16T11:30:19;97756.16;;;22.71;98.77
49311;BME280;35177;45.900;5.946;2022-10-16T11:36:11;97745.22;;;23.36;90.27
49311;BME280;35177;45.900;5.946;2022-10-16T11:40:54;97746.94;;;22.33;91.02
49311;BME280;35177;45.900;5.946;2022-10-16T11:45:58;97738.66;;;22.58;88.69
49311;BME280;35177;45.900;5.946;2022-10-16T11:48:31;97734.91;;;22.43;90.14
49311;BME280;35177;45.900;5.946;2022-10-16T11:51:25;97736.91;;;22.39;90.95
49311;BME280;35177;45.900;5.946;2022-10-16T11:54:07;97742.56;;;22.43;99.03
49311;BME280;35177;45.900;5.946;2022-10-16T11:56:38;97737.31;;;22.41;92.53
49311;BME280;35177;45.900;5.946;2022-10-16T11:59:21;97740.94;;;22.38;90.83
49311;BME280;35177;45.900;5.946;2022-10-16T12:01:57;97730.69;;;22.26;88.48
49311;BME280;35177;45.900;5.946;2022-10-16T12:07:14;97731.25;;;22.43;95.22
49311;BME280;35177;45.900;5.946;2022-10-16T12:09:41;97730.09;;;22.48;88.13
49311;BME280;35177;45.900;5.946;2022-10-16T12:12:28;97731.25;;;22.39;88.80
49311;BME280;35177;45.900;5.946;2022-10-16T12:17:48;97722.06;;;22.53;94.59
49311;BME280;35177;45.900;5.946;2022-10-16T12:20:19;97729.72;;;23.12;94.80
49311;BME280;35177;45.900;5.946;2022-10-16T12:22:55;97721.56;;;23.00;93.40
49311;BME280;35177;45.900;5.946;2022-10-16T12:28:26;97718.22;;;22.87;100.00
49311;BME280;35177;45.900;5.946;2022-10-16T12:31:00;97719.88;;;22.91;100.00
49311;BME280;35177;45.900;5.946;2022-10-16T12:33:29;97722.38;;;23.04;100.00
49311;BME280;35177;45.900;5.946;2022-10-16T12:35:56;97718.38;;;23.08;100.00
49311;BME280;35177;45.900;5.946;2022-10-16T12:38:27;97709.72;;;22.83;90.59
49311;BME280;35177;45.900;5.946;2022-10-16T12:41:07;97707.72;;;22.84;98.19
49311;BME280;35177;45.900;5.946;2022-10-16T12:43:47;97704.91;;;22.87;98.55
49311;BME280;35177;45.900;5.946;2022-10-16T12:48:40;97708.56;;;22.91;92.67
49311;BME280;35177;45.900;5.946;2022-10-16T12:54:00;97702.41;;;22.75;96.76
49311;BME280;35177;45.900;5.946;2022-10-16T12:59:38;97708.03;;;22.71;93.34
49311;BME280;35177;45.900;5.946;2022-10-16T13:07:36;97702.03;;;22.80;99.72
49311;BME280;35177;45.900;5.946;2022-10-16T13:10:19;97706.06;;;22.79;96.55
49311;BME280;35177;45.900;5.946;2022-10-16T13:16:22;97708.03;;;22.71;93.92
49311;BME280;35177;45.900;5.946;2022-10-16T13:30:16;97692.88;;;23.05;100.00
49311;BME280;35177;45.900;5.946;2022-10-16T13:32:48;97693.78;;;23.23;99.53
49311;BME280;35177;45.900;5.946;2022-10-16T13:35:26;97693.78;;;23.23;94.05
49311;BME280;35177;45.900;5.946;2022-10-16T13:38:04;97686.41;;;23.11;91.21
49311;BME280;35177;45.900;5.946;2022-10-16T13:40:29;97682.09;;;23.32;95.14
49311;BME280;35177;45.900;5.946;2022-10-16T13:42:55;97684.16;;;23.42;99.33
49311;BME280;35177;45.900;5.946;2022-10-16T13:45:23;97685.72;;;23.29;94.89
49311;BME280;35177;45.900;5.946;2022-10-16T13:48:01;97691.00;;;23.38;98.84
49311;BME280;35177;45.900;5.946;2022-10-16T13:50:27;97697.06;;;23.29;99.00
49311;BME280;35177;45.900;5.946;2022-10-16T13:53:06;97694.25;;;23.33;97.92
49311;BME280;35177;45.900;5.946;2022-10-16T13:55:32;97697.47;;;23.35;100.00
49311;BME280;35177;45.900;5.946;2022-10-16T13:58:14;97696.69;;;23.41;96.16
49311;BME280;35177;45.900;5.946;2022-10-16T14:00:42;97697.06;;;23.29;96.96
49311;BME280;35177;45.900;5.946;2022-10-16T14:03:19;97696.69;;;23.41;99.22
49311;BME280;35177;45.900;5.946;2022-10-16T14:05:51;97695.50;;;23.53;100.00
49311;BME280;35177;45.900;5.946;2022-10-16T14:08:17;97693.88;;;23.41;100.00
49311;BME280;35177;45.900;5.946;2022-10-16T14:10:48;97687.72;;;23.29;99.57
49311;BME280;35177;45.900;5.946;2022-10-16T14:13:18;97692.25;;;23.48;95.12
49311;BME280;35177;45.900;5.946;2022-10-16T14:15:47;97699.16;;;23.50;94.69
49311;BME280;35177;45.900;5.946;2022-10-16T14:18:19;97694.28;;;23.54;100.00
49311;BME280;35177;45.900;5.946;2022-10-16T14:20:46;97693.09;;;23.55;100.00
49311;BME280;35177;45.900;5.946;2022-10-16T14:25:48;97694.66;;;23.38;100.00
49311;BME280;35177;45.900;5.946;2022-10-16T14:28:21;97700.41;;;23.60;100.00
49311;BME280;35177;45.900;5.946;2022-10-16T14:30:58;97699.56;;;23.63;100.00
49311;BME280;35177;45.900;5.946;2022-10-16T14:36:13;97710.50;;;23.57;98.83
49311;BME280;35177;45.900;5.946;2022-10-16T14:38:41;97700.78;;;23.51;100.00
49311;BME280;35177;45.900;5.946;2022-10-16T14:41:07;97710.13;;;23.63;100.00
49311;BME280;35177;45.900;5.946;2022-10-16T14:46:00;97717.75;;;23.48;100.00
49311;BME280;35177;45.900;5.946;2022-10-16T14:48:26;97716.88;;;23.25;96.37
49311;BME280;35177;45.900;5.946;2022-10-16T14:50:52;97711.56;;;23.20;100.00
49311;BME280;35177;45.900;5.946;2022-10-16T14:53:18;97711.97;;;23.22;100.00
49311;BME280;35177;45.900;5.946;2022-10-16T14:55:44;97712.41;;;23.28;100.00
49311;BME280;35177;45.900;5.946;2022-10-16T14:58:18;97714.72;;;23.11;100.00
49311;BME280;35177;45.900;5.946;2022-10-16T15:00:45;97721.97;;;23.05;98.03
49311;BME280;35177;45.900;5.946;2022-10-16T15:03:11;97721.56;;;23.00;100.00
49311;BME280;35177;45.900;5.946;2022-10-16T15:05:37;97725.59;;;23.02;99.73
49311;BME280;35177;45.900;5.946;2022-10-16T15:08:03;97715.06;;;22.99;96.96